Gerard, New Jersey
Current Conditions -  °F | °C
As of 8:53 PM on Wednesday 17 Dec 2014 (Local Time) from KFWN Reporting Station
Overcast Overcast  
Wind Chill: 38°   Ceiling: 5000
Heat Index: 41°   Visibility: 10mi
Dew Point: 30°   Wind: 5mph
Humidity: 65%   Direction: NA
Pressure: 29.9"   Gusts: NA
Location:  41.1122°N, 74.4998°W
Report Text: KFWN 180153Z AUTO VRB04KT 10SM SCT043 OVC050 05/M01 A2990 RMK AO2 SLP125 T00501011
Loading
Personal Weather Stations






























Interactive Weather Map New forecast layout! Learn more

10-Day Weather Forecast

Advertisements
Track Severe Weather on mobile